Time;durP1;ratioP1;P1;durP2;ratioP2;P2;SDS_P1;SDS_P2;PMS_P1;PMS_P2;Temp;Humidity;BMP_temperature;BMP_pressure;BME280_temperature;BME280_humidity;BME280_pressure;Samples;Min_cycle;Max_cycle;Signal;HPM_P1;HPM_P2
2022/08/31 00:05:07;;;;;;;7.53;6.77;;;;;;;;;;5071732;28;20924;-73
2022/08/31 00:07:34;;;;;;;10.30;7.00;;;;;;;;;;5037064;28;20437;-74
2022/08/31 00:10:13;;;;;;;8.00;7.30;;;;;;;;;;5053417;28;20533;-73
2022/08/31 00:12:44;;;;;;;7.20;6.57;;;;;;;;;;5037090;28;20514;-74
2022/08/31 00:15:12;;;;;;;7.20;6.60;;;;;;;;;;5048117;28;20487;-73
2022/08/31 00:17:40;;;;;;;7.13;6.53;;;;;;;;;;5063705;28;20982;-73
2022/08/31 00:20:07;;;;;;;10.10;8.27;;;;;;;;;;5071422;28;20444;-73
2022/08/31 00:22:54;;;;;;;8.27;7.13;;;;;;;;;;5039710;28;20521;-73
2022/08/31 00:25:22;;;;;;;7.30;6.70;;;;;;;;;;5053658;28;20424;-73
2022/08/31 00:27:49;;;;;;;13.23;8.23;;;;;;;;;;5053369;28;20451;-73
2022/08/31 00:30:16;;;;;;;7.30;6.60;;;;;;;;;;5036800;28;20456;-72
2022/08/31 00:32:43;;;;;;;9.33;7.17;;;;;;;;;;5036626;28;20539;-72
2022/08/31 00:35:10;;;;;;;8.00;7.27;;;;;;;;;;5053201;28;20436;-72
2022/08/31 00:37:36;;;;;;;14.30;6.77;;;;;;;;;;5052317;28;20425;-72
2022/08/31 00:40:03;;;;;;;10.10;7.87;;;;;;;;;;5065822;28;20440;-72
2022/08/31 00:42:30;;;;;;;8.07;7.20;;;;;;;;;;5075356;28;20511;-72
2022/08/31 00:44:57;;;;;;;7.43;6.73;;;;;;;;;;5057219;28;20489;-73
2022/08/31 00:47:23;;;;;;;9.47;8.27;;;;;;;;;;5057210;28;20872;-72
2022/08/31 00:49:50;;;;;;;9.73;8.87;;;;;;;;;;5056830;28;20504;-73
2022/08/31 00:52:23;;;;;;;9.73;6.53;;;;;;;;;;5057034;28;20503;-73
2022/08/31 00:54:49;;;;;;;9.93;7.50;;;;;;;;;;5075721;28;20800;-73
2022/08/31 00:57:16;;;;;;;6.63;6.13;;;;;;;;;;5068943;28;20990;-73
2022/08/31 00:59:50;;;;;;;9.03;6.60;;;;;;;;;;5066834;28;20547;-73
2022/08/31 01:02:16;;;;;;;8.00;7.30;;;;;;;;;;5021880;28;20503;-73
2022/08/31 01:04:43;;;;;;;7.60;6.90;;;;;;;;;;5050170;28;20434;-72
2022/08/31 01:07:10;;;;;;;7.73;7.10;;;;;;;;;;5057075;28;20513;-73
2022/08/31 01:09:38;;;;;;;8.23;7.53;;;;;;;;;;5056889;28;21057;-73
2022/08/31 01:12:10;;;;;;;11.97;8.00;;;;;;;;;;5040950;28;20478;-73
2022/08/31 01:14:38;;;;;;;7.43;6.80;;;;;;;;;;5040090;28;20921;-72
2022/08/31 01:17:06;;;;;;;7.83;7.13;;;;;;;;;;5040052;28;20447;-72
2022/08/31 01:19:32;;;;;;;7.87;7.07;;;;;;;;;;5040097;28;20543;-72
2022/08/31 01:22:09;;;;;;;7.80;7.20;;;;;;;;;;5074751;28;20969;-71
2022/08/31 01:24:37;;;;;;;8.40;7.70;;;;;;;;;;5057139;28;20555;-72
2022/08/31 01:27:06;;;;;;;7.47;6.83;;;;;;;;;;5056639;28;20523;-73
2022/08/31 01:29:34;;;;;;;8.67;7.90;;;;;;;;;;5074349;28;20816;-73
2022/08/31 01:32:00;;;;;;;7.53;6.47;;;;;;;;;;5057622;28;20489;-73
2022/08/31 01:34:27;;;;;;;8.23;7.40;;;;;;;;;;5056781;28;20463;-72
2022/08/31 01:36:54;;;;;;;7.30;6.70;;;;;;;;;;5056125;28;20433;-73
2022/08/31 01:39:20;;;;;;;6.70;6.00;;;;;;;;;;5042948;28;20445;-73
2022/08/31 01:41:47;;;;;;;9.20;8.07;;;;;;;;;;5056273;28;20436;-71
2022/08/31 01:44:15;;;;;;;7.80;7.10;;;;;;;;;;5039549;28;20890;-73
2022/08/31 01:46:42;;;;;;;7.07;6.37;;;;;;;;;;5056251;28;20439;-73
2022/08/31 01:49:09;;;;;;;8.10;7.40;;;;;;;;;;5054782;28;20852;-73
2022/08/31 01:51:36;;;;;;;7.27;6.57;;;;;;;;;;5056232;28;20428;-72
2022/08/31 01:54:03;;;;;;;6.47;5.97;;;;;;;;;;5035964;28;20491;-72
2022/08/31 01:56:32;;;;;;;8.83;8.00;;;;;;;;;;5048404;28;20460;-72
2022/08/31 01:59:01;;;;;;;7.57;6.90;;;;;;;;;;5055950;28;20424;-72
2022/08/31 02:01:53;;;;;;;6.97;6.47;;;;;;;;;;5059665;28;20428;-72
2022/08/31 02:04:21;;;;;;;11.93;7.60;;;;;;;;;;5055574;28;20444;-73
2022/08/31 02:06:50;;;;;;;10.27;8.10;;;;;;;;;;5039247;28;20435;-73
2022/08/31 02:09:18;;;;;;;7.50;6.90;;;;;;;;;;5039042;28;20448;-72
2022/08/31 02:11:45;;;;;;;7.53;6.83;;;;;;;;;;5055302;28;20519;-72
2022/08/31 02:14:12;;;;;;;8.03;7.37;;;;;;;;;;5055149;28;20465;-73
2022/08/31 02:16:39;;;;;;;7.80;6.77;;;;;;;;;;5055387;28;20439;-73
2022/08/31 02:19:06;;;;;;;6.67;6.07;;;;;;;;;;5055278;28;20436;-73
2022/08/31 02:21:32;;;;;;;7.93;7.30;;;;;;;;;;5038603;28;20790;-73
2022/08/31 02:24:02;;;;;;;8.70;7.47;;;;;;;;;;5055117;28;20475;-73
2022/08/31 02:26:29;;;;;;;7.27;6.57;;;;;;;;;;5055027;28;20444;-72
2022/08/31 02:28:55;;;;;;;9.17;6.83;;;;;;;;;;5055017;28;20472;-72
2022/08/31 02:31:22;;;;;;;7.53;6.83;;;;;;;;;;5055073;28;20475;-72
2022/08/31 02:33:54;;;;;;;6.60;6.00;;;;;;;;;;5039254;28;20468;-72
2022/08/31 02:36:22;;;;;;;7.77;6.60;;;;;;;;;;5054985;28;20435;-73
2022/08/31 02:38:50;;;;;;;6.30;5.80;;;;;;;;;;5038677;28;20432;-73
2022/08/31 02:41:17;;;;;;;6.83;6.20;;;;;;;;;;5054822;28;20449;-73
2022/08/31 02:43:44;;;;;;;6.57;6.00;;;;;;;;;;5054815;28;20437;-73
2022/08/31 02:46:11;;;;;;;6.63;6.03;;;;;;;;;;5072791;28;20457;-72
2022/08/31 02:48:47;;;;;;;9.03;7.33;;;;;;;;;;5054694;28;20440;-74
2022/08/31 02:51:16;;;;;;;14.07;7.17;;;;;;;;;;5038634;28;20461;-72
2022/08/31 02:53:45;;;;;;;7.00;6.40;;;;;;;;;;5054502;28;20526;-72
2022/08/31 02:56:12;;;;;;;6.50;6.00;;;;;;;;;;5038429;28;20425;-72
2022/08/31 02:58:39;;;;;;;6.77;6.27;;;;;;;;;;5054894;28;20459;-72
2022/08/31 03:01:06;;;;;;;7.60;6.70;;;;;;;;;;5044077;28;20795;-73
2022/08/31 03:03:34;;;;;;;7.57;5.97;;;;;;;;;;5051376;28;20535;-73
2022/08/31 03:06:00;;;;;;;7.03;6.43;;;;;;;;;;5054372;28;20428;-73
2022/08/31 03:08:27;;;;;;;6.90;6.03;;;;;;;;;;5054289;28;20499;-72
2022/08/31 03:10:56;;;;;;;6.63;5.87;;;;;;;;;;5054138;28;20559;-72
2022/08/31 03:13:23;;;;;;;7.40;6.63;;;;;;;;;;5054103;28;20455;-73
2022/08/31 03:15:50;;;;;;;12.13;6.47;;;;;;;;;;5054463;28;20433;-73
2022/08/31 03:18:17;;;;;;;10.30;7.00;;;;;;;;;;5072023;28;20421;-72
2022/08/31 03:20:44;;;;;;;7.93;6.50;;;;;;;;;;5037570;28;20487;-72
2022/08/31 03:23:11;;;;;;;6.93;6.33;;;;;;;;;;5054019;28;20859;-72
2022/08/31 03:25:37;;;;;;;6.63;6.00;;;;;;;;;;5071963;28;20439;-72
2022/08/31 03:28:06;;;;;;;6.30;5.70;;;;;;;;;;5053908;28;20429;-72
2022/08/31 03:30:35;;;;;;;7.93;7.23;;;;;;;;;;5041351;28;20520;-72
2022/08/31 03:33:05;;;;;;;8.63;6.50;;;;;;;;;;5053527;28;20527;-73
2022/08/31 03:35:33;;;;;;;7.40;6.70;;;;;;;;;;5053733;28;20464;-72
2022/08/31 03:38:01;;;;;;;9.13;7.20;;;;;;;;;;5051198;28;20841;-72
2022/08/31 03:40:28;;;;;;;6.77;6.13;;;;;;;;;;5053611;28;20456;-73
2022/08/31 03:42:57;;;;;;;7.50;6.53;;;;;;;;;;5053661;28;20432;-73
2022/08/31 03:45:26;;;;;;;5.83;5.43;;;;;;;;;;5037242;28;20443;-73
2022/08/31 03:47:53;;;;;;;12.87;6.00;;;;;;;;;;5053544;28;20429;-72
2022/08/31 03:50:22;;;;;;;6.50;5.97;;;;;;;;;;5053357;28;21221;-72
2022/08/31 03:52:56;;;;;;;7.10;6.17;;;;;;;;;;5038051;28;20439;-72
2022/08/31 03:55:23;;;;;;;7.57;6.83;;;;;;;;;;5053385;28;20468;-72
2022/08/31 03:57:51;;;;;;;7.00;6.40;;;;;;;;;;5037245;28;20437;-73
2022/08/31 04:00:18;;;;;;;6.70;6.20;;;;;;;;;;5036774;28;20449;-73
2022/08/31 04:02:52;;;;;;;7.07;6.50;;;;;;;;;;5037989;28;21246;-73
2022/08/31 04:05:43;;;;;;;7.63;6.93;;;;;;;;;;5045019;28;20853;-73
2022/08/31 04:08:13;;;;;;;8.70;7.37;;;;;;;;;;5077723;28;20467;-73
2022/08/31 04:10:58;;;;;;;8.43;6.53;;;;;;;;;;5058507;28;20882;-73
2022/08/31 04:13:30;;;;;;;7.90;5.83;;;;;;;;;;5054340;28;20421;-72
2022/08/31 04:16:17;;;;;;;7.70;6.93;;;;;;;;;;5071404;28;20504;-72
2022/08/31 04:18:58;;;;;;;8.17;6.67;;;;;;;;;;5055852;28;20432;-72
2022/08/31 04:21:31;;;;;;;7.60;5.90;;;;;;;;;;5053116;28;20445;-73
2022/08/31 04:23:59;;;;;;;6.57;6.13;;;;;;;;;;5036690;28;20432;-73
2022/08/31 04:26:35;;;;;;;7.00;6.40;;;;;;;;;;5036699;28;20435;-73
2022/08/31 04:29:04;;;;;;;7.90;6.33;;;;;;;;;;5052957;28;20432;-73
2022/08/31 04:31:35;;;;;;;9.53;6.63;;;;;;;;;;5053080;28;20432;-72
2022/08/31 04:34:03;;;;;;;7.33;6.57;;;;;;;;;;5052880;28;20551;-73
2022/08/31 04:36:30;;;;;;;7.10;6.50;;;;;;;;;;5053243;28;20507;-73
2022/08/31 04:38:59;;;;;;;7.80;5.73;;;;;;;;;;5052667;28;20511;-73
2022/08/31 04:41:26;;;;;;;7.37;6.77;;;;;;;;;;5052987;28;20432;-74
2022/08/31 04:43:54;;;;;;;6.90;6.30;;;;;;;;;;5052665;28;20441;-73
2022/08/31 04:46:22;;;;;;;9.60;8.70;;;;;;;;;;5036397;28;20437;-72
2022/08/31 04:48:49;;;;;;;7.50;6.63;;;;;;;;;;5052929;28;20793;-72
2022/08/31 04:51:20;;;;;;;7.63;6.87;;;;;;;;;;5052728;28;20506;-73
2022/08/31 04:53:47;;;;;;;8.57;7.20;;;;;;;;;;5052751;28;20976;-72
2022/08/31 04:56:15;;;;;;;8.17;7.37;;;;;;;;;;5052709;28;20440;-73
2022/08/31 04:58:43;;;;;;;7.77;6.93;;;;;;;;;;5053020;28;20478;-72
2022/08/31 05:01:11;;;;;;;8.93;6.77;;;;;;;;;;5052674;28;20483;-72
2022/08/31 05:03:57;;;;;;;8.97;7.10;;;;;;;;;;5071119;28;20458;-72
2022/08/31 05:06:24;;;;;;;14.30;7.40;;;;;;;;;;5036164;28;20494;-73
2022/08/31 05:08:53;;;;;;;8.00;7.13;;;;;;;;;;5052713;28;20440;-73
2022/08/31 05:11:20;;;;;;;7.57;6.90;;;;;;;;;;5052543;28;20456;-73
2022/08/31 05:13:51;;;;;;;9.40;6.60;;;;;;;;;;5036879;28;20437;-73
2022/08/31 05:16:18;;;;;;;8.57;7.70;;;;;;;;;;5022901;28;20517;-73
2022/08/31 05:18:46;;;;;;;8.03;7.20;;;;;;;;;;5052498;28;20429;-73
2022/08/31 05:21:19;;;;;;;8.23;7.40;;;;;;;;;;5052187;28;20456;-72
2022/08/31 05:23:47;;;;;;;10.97;7.30;;;;;;;;;;5073367;28;20417;-73
2022/08/31 05:26:16;;;;;;;6.77;6.37;;;;;;;;;;5056102;28;20432;-73
2022/08/31 05:28:43;;;;;;;7.87;7.27;;;;;;;;;;5074212;28;20931;-73
2022/08/31 05:31:10;;;;;;;5.97;5.47;;;;;;;;;;5039441;28;20444;-73
2022/08/31 05:33:42;;;;;;;8.77;7.20;;;;;;;;;;5056155;28;20502;-73
2022/08/31 05:36:11;;;;;;;8.07;7.00;;;;;;;;;;5055878;28;20472;-73
2022/08/31 05:38:38;;;;;;;7.90;7.27;;;;;;;;;;5043894;28;20809;-72
2022/08/31 05:41:06;;;;;;;10.03;7.40;;;;;;;;;;5054969;28;21074;-72
2022/08/31 05:43:33;;;;;;;8.43;7.50;;;;;;;;;;5055992;28;20549;-72
2022/08/31 05:46:00;;;;;;;7.50;6.90;;;;;;;;;;5039549;28;20490;-72
2022/08/31 05:48:32;;;;;;;9.27;8.40;;;;;;;;;;5055819;28;20444;-73
2022/08/31 05:51:01;;;;;;;9.30;8.23;;;;;;;;;;5055780;28;20589;-73
2022/08/31 05:53:27;;;;;;;8.57;7.77;;;;;;;;;;5039180;28;20803;-73
2022/08/31 05:56:05;;;;;;;8.07;7.27;;;;;;;;;;5039278;28;20555;-73
2022/08/31 05:58:32;;;;;;;8.60;7.80;;;;;;;;;;5039212;28;20436;-73
2022/08/31 06:01:00;;;;;;;9.73;8.03;;;;;;;;;;5055910;28;20531;-72
2022/08/31 06:03:47;;;;;;;8.70;7.90;;;;;;;;;;5073144;28;20462;-72
2022/08/31 06:06:13;;;;;;;9.10;8.07;;;;;;;;;;5039095;28;20494;-73
2022/08/31 06:08:40;;;;;;;8.90;8.03;;;;;;;;;;5038863;28;20458;-72
2022/08/31 06:11:12;;;;;;;7.83;7.00;;;;;;;;;;5055370;28;21324;-73
2022/08/31 06:13:39;;;;;;;10.20;8.03;;;;;;;;;;5049007;28;20434;-73
2022/08/31 06:16:05;;;;;;;8.93;7.37;;;;;;;;;;5028890;28;20489;-73
2022/08/31 06:18:32;;;;;;;8.30;7.50;;;;;;;;;;5055345;28;20433;-73
2022/08/31 06:21:00;;;;;;;8.70;8.00;;;;;;;;;;5055257;28;20453;-73
2022/08/31 06:23:27;;;;;;;8.40;7.60;;;;;;;;;;5055243;28;20494;-72
2022/08/31 06:26:00;;;;;;;9.17;8.30;;;;;;;;;;5038713;28;20447;-73
2022/08/31 06:28:31;;;;;;;11.20;10.23;;;;;;;;;;5038886;28;20444;-72
2022/08/31 06:30:59;;;;;;;9.20;8.30;;;;;;;;;;5054945;28;20492;-72
2022/08/31 06:33:26;;;;;;;9.73;8.63;;;;;;;;;;5054998;28;20459;-73
2022/08/31 06:36:16;;;;;;;9.53;8.63;;;;;;;;;;5054810;28;20474;-73
2022/08/31 06:38:54;;;;;;;11.13;8.93;;;;;;;;;;5054819;28;20439;-73
2022/08/31 06:41:40;;;;;;;9.63;8.73;;;;;;;;;;5058248;28;20494;-72
2022/08/31 06:44:25;;;;;;;9.77;7.40;;;;;;;;;;5057920;28;20523;-72
2022/08/31 06:47:05;;;;;;;7.80;7.10;;;;;;;;;;5054794;28;20432;-73
2022/08/31 06:49:34;;;;;;;11.00;8.53;;;;;;;;;;5054617;28;20479;-72
2022/08/31 06:52:01;;;;;;;14.90;8.73;;;;;;;;;;5054659;28;20431;-73
2022/08/31 06:54:30;;;;;;;8.10;7.30;;;;;;;;;;5054517;28;20429;-73
2022/08/31 06:57:22;;;;;;;6.90;6.30;;;;;;;;;;5029361;28;20468;-73
2022/08/31 07:00:08;;;;;;;6.87;6.13;;;;;;;;;;5072464;28;20463;-73
2022/08/31 07:02:53;;;;;;;6.73;6.13;;;;;;;;;;5057773;28;20424;-74
2022/08/31 07:05:23;;;;;;;7.47;6.70;;;;;;;;;;5038433;28;20467;-73
2022/08/31 07:07:51;;;;;;;7.70;6.90;;;;;;;;;;5054406;28;20440;-72
2022/08/31 07:10:18;;;;;;;8.80;6.83;;;;;;;;;;5054242;28;20457;-72
2022/08/31 07:12:45;;;;;;;8.00;6.90;;;;;;;;;;5054304;28;20435;-72
2022/08/31 07:15:12;;;;;;;7.33;6.73;;;;;;;;;;5054550;28;20476;-72
2022/08/31 07:17:39;;;;;;;11.23;8.17;;;;;;;;;;5055041;28;20497;-72
2022/08/31 07:20:07;;;;;;;5.97;5.47;;;;;;;;;;5038234;28;20505;-73
2022/08/31 07:22:34;;;;;;;6.23;5.60;;;;;;;;;;5054211;28;20459;-72
2022/08/31 07:25:27;;;;;;;5.87;5.27;;;;;;;;;;5044335;28;20952;-72
2022/08/31 07:27:54;;;;;;;5.97;5.47;;;;;;;;;;5053956;28;20791;-73
2022/08/31 07:30:21;;;;;;;7.97;6.93;;;;;;;;;;5037451;28;20487;-73
2022/08/31 07:32:49;;;;;;;5.60;4.60;;;;;;;;;;5037436;28;20443;-73
2022/08/31 07:35:17;;;;;;;5.23;4.83;;;;;;;;;;5043295;28;20468;-73
2022/08/31 07:43:35;;;;;;;5.77;5.10;;;;;;;;;;5053773;28;20444;-73
2022/08/31 07:46:02;;;;;;;7.07;6.47;;;;;;;;;;5036452;28;20441;-72
2022/08/31 07:48:30;;;;;;;5.20;4.70;;;;;;;;;;5053643;28;20429;-73
2022/08/31 07:51:08;;;;;;;4.83;4.33;;;;;;;;;;5041507;28;20861;-73
2022/08/31 07:53:41;;;;;;;4.97;4.47;;;;;;;;;;5054631;28;20441;-73
2022/08/31 07:56:29;;;;;;;5.13;4.60;;;;;;;;;;5053719;28;20839;-72
2022/08/31 07:59:13;;;;;;;8.10;5.13;;;;;;;;;;5053581;28;20476;-72
2022/08/31 08:01:42;;;;;;;4.83;4.40;;;;;;;;;;5053957;28;20989;-73
2022/08/31 08:04:14;;;;;;;4.33;4.03;;;;;;;;;;5037583;28;20445;-73
2022/08/31 08:06:54;;;;;;;7.80;4.97;;;;;;;;;;5055831;28;20776;-73
2022/08/31 08:09:47;;;;;;;5.03;4.50;;;;;;;;;;5047063;28;20468;-72
2022/08/31 08:12:35;;;;;;;5.80;4.70;;;;;;;;;;5070700;28;20444;-72
2022/08/31 08:15:19;;;;;;;4.67;4.10;;;;;;;;;;5043537;28;20506;-72
2022/08/31 08:17:54;;;;;;;4.80;4.40;;;;;;;;;;5072019;28;20427;-73
2022/08/31 08:20:25;;;;;;;4.33;3.97;;;;;;;;;;5037616;28;20445;-73
2022/08/31 08:23:10;;;;;;;4.50;4.10;;;;;;;;;;5053872;28;20436;-73
2022/08/31 08:26:05;;;;;;;5.17;4.70;;;;;;;;;;5071679;28;20449;-74
2022/08/31 08:29:04;;;;;;;4.60;4.20;;;;;;;;;;5019758;28;20474;-72
2022/08/31 08:31:32;;;;;;;4.27;3.90;;;;;;;;;;5054963;28;20480;-72
2022/08/31 08:33:59;;;;;;;5.13;4.37;;;;;;;;;;5037024;28;21051;-72
2022/08/31 08:36:26;;;;;;;5.00;4.60;;;;;;;;;;5036855;28;20483;-72
2022/08/31 08:38:53;;;;;;;5.10;4.53;;;;;;;;;;5053776;28;20440;-73
2022/08/31 08:41:24;;;;;;;5.10;4.27;;;;;;;;;;5037347;28;20490;-74
2022/08/31 08:43:56;;;;;;;4.87;4.47;;;;;;;;;;5053285;28;20437;-74
2022/08/31 08:46:30;;;;;;;4.03;3.73;;;;;;;;;;5053870;28;20801;-73
2022/08/31 08:49:07;;;;;;;6.90;4.27;;;;;;;;;;5037284;28;20443;-73
2022/08/31 08:51:37;;;;;;;4.67;4.10;;;;;;;;;;5036841;28;20476;-73
2022/08/31 08:54:12;;;;;;;4.70;4.30;;;;;;;;;;5053036;28;20900;-73
2022/08/31 08:56:45;;;;;;;4.30;3.90;;;;;;;;;;5033252;28;20460;-73
2022/08/31 08:59:16;;;;;;;6.47;5.10;;;;;;;;;;5044874;28;20452;-73
2022/08/31 09:01:47;;;;;;;5.13;4.73;;;;;;;;;;5041357;28;20436;-73
2022/08/31 09:04:19;;;;;;;4.17;3.83;;;;;;;;;;5057134;28;20968;-73
2022/08/31 09:07:30;;;;;;;4.50;4.10;;;;;;;;;;5051334;28;20430;-73
2022/08/31 09:10:18;;;;;;;4.67;4.17;;;;;;;;;;5074943;28;20833;-73
2022/08/31 09:12:45;;;;;;;5.90;5.43;;;;;;;;;;5056770;28;20838;-73
2022/08/31 09:15:20;;;;;;;4.70;4.13;;;;;;;;;;5056657;28;20435;-73
2022/08/31 09:17:52;;;;;;;5.33;4.83;;;;;;;;;;5056841;28;20465;-73
2022/08/31 09:20:26;;;;;;;6.57;4.37;;;;;;;;;;5056594;28;20444;-72
2022/08/31 09:22:55;;;;;;;5.30;4.87;;;;;;;;;;5056562;28;20451;-73
2022/08/31 09:25:28;;;;;;;4.80;4.40;;;;;;;;;;5056753;28;21204;-73
2022/08/31 09:28:14;;;;;;;6.10;4.80;;;;;;;;;;5042368;28;20550;-72
2022/08/31 09:30:40;;;;;;;4.83;4.07;;;;;;;;;;5056555;28;20456;-72
2022/08/31 09:33:15;;;;;;;4.30;4.00;;;;;;;;;;5056297;28;20431;-72
2022/08/31 09:35:43;;;;;;;5.57;4.27;;;;;;;;;;5056201;28;20456;-72
2022/08/31 09:38:24;;;;;;;4.97;4.57;;;;;;;;;;5039828;28;20424;-73
2022/08/31 09:40:51;;;;;;;4.80;4.30;;;;;;;;;;5074256;28;20476;-73
2022/08/31 09:43:22;;;;;;;5.17;4.77;;;;;;;;;;5056355;28;20432;-72
2022/08/31 09:45:49;;;;;;;6.40;5.00;;;;;;;;;;5074195;28;20986;-73
2022/08/31 09:48:35;;;;;;;6.43;5.30;;;;;;;;;;5056205;28;20464;-73
2022/08/31 09:51:02;;;;;;;5.90;4.60;;;;;;;;;;5056059;28;20558;-72
2022/08/31 09:56:28;;;;;;;5.77;5.27;;;;;;;;;;5034155;28;20533;-73
2022/08/31 09:59:00;;;;;;;5.73;5.23;;;;;;;;;;5056048;28;20952;-74
2022/08/31 10:01:43;;;;;;;5.27;4.77;;;;;;;;;;5039658;28;20439;-72
2022/08/31 10:04:16;;;;;;;6.17;4.23;;;;;;;;;;5039551;28;20947;-73
2022/08/31 10:07:05;;;;;;;4.87;4.37;;;;;;;;;;5056077;28;20452;-73
2022/08/31 10:09:45;;;;;;;5.20;4.80;;;;;;;;;;5038685;28;20456;-74
2022/08/31 10:12:17;;;;;;;5.87;5.37;;;;;;;;;;5055943;28;20439;-72
2022/08/31 10:14:52;;;;;;;6.30;5.80;;;;;;;;;;5055807;28;20424;-73
2022/08/31 10:17:29;;;;;;;5.20;4.60;;;;;;;;;;5055761;28;20486;-72
2022/08/31 10:20:08;;;;;;;8.50;4.90;;;;;;;;;;5055687;28;20444;-72
2022/08/31 10:22:43;;;;;;;5.80;5.10;;;;;;;;;;5055587;28;21031;-72
2022/08/31 10:25:35;;;;;;;4.90;4.50;;;;;;;;;;5039070;28;20428;-73
2022/08/31 10:28:07;;;;;;;4.23;3.93;;;;;;;;;;5039283;28;20468;-73
2022/08/31 10:30:42;;;;;;;4.90;4.50;;;;;;;;;;5039548;28;20456;-74
2022/08/31 10:33:16;;;;;;;4.93;4.53;;;;;;;;;;5056327;28;20441;-73
2022/08/31 10:35:50;;;;;;;6.20;5.60;;;;;;;;;;5075223;28;20470;-73
2022/08/31 10:38:46;;;;;;;5.83;5.20;;;;;;;;;;5045350;28;20433;-74
2022/08/31 10:41:15;;;;;;;5.17;4.60;;;;;;;;;;5025987;28;20464;-73
2022/08/31 10:43:47;;;;;;;5.40;5.00;;;;;;;;;;5055038;28;20555;-73
2022/08/31 10:46:14;;;;;;;6.70;5.47;;;;;;;;;;5055396;28;20425;-73
2022/08/31 10:48:46;;;;;;;6.00;4.70;;;;;;;;;;5073071;28;20425;-74
2022/08/31 10:51:21;;;;;;;9.17;5.10;;;;;;;;;;5055143;28;20445;-74
2022/08/31 10:53:49;;;;;;;4.93;4.60;;;;;;;;;;5055089;28;20428;-74
2022/08/31 10:56:19;;;;;;;5.97;5.47;;;;;;;;;;5054807;28;20510;-72
2022/08/31 10:58:52;;;;;;;4.50;4.20;;;;;;;;;;5054888;28;20432;-72
2022/08/31 11:01:27;;;;;;;6.57;5.00;;;;;;;;;;5054869;28;20984;-73
2022/08/31 11:04:02;;;;;;;4.90;4.50;;;;;;;;;;5038232;28;20439;-73
2022/08/31 11:06:39;;;;;;;4.80;4.40;;;;;;;;;;5055143;28;20473;-74
2022/08/31 11:09:18;;;;;;;4.77;4.40;;;;;;;;;;5038420;28;20432;-73
2022/08/31 11:11:50;;;;;;;5.93;5.37;;;;;;;;;;5054645;28;20475;-73
2022/08/31 11:14:32;;;;;;;6.30;5.50;;;;;;;;;;5054941;28;20457;-73
2022/08/31 11:17:18;;;;;;;4.70;4.30;;;;;;;;;;5038208;28;20563;-74
2022/08/31 11:19:54;;;;;;;3.93;3.63;;;;;;;;;;5016899;28;20591;-74
2022/08/31 11:22:40;;;;;;;5.37;4.50;;;;;;;;;;5038167;28;20432;-75
2022/08/31 11:25:26;;;;;;;5.40;4.63;;;;;;;;;;5054625;28;20446;-74
2022/08/31 11:27:52;;;;;;;6.17;3.67;;;;;;;;;;5037939;28;20448;-74
2022/08/31 11:30:25;;;;;;;4.97;4.53;;;;;;;;;;5054271;28;20464;-73
2022/08/31 11:32:54;;;;;;;4.97;4.53;;;;;;;;;;5072083;28;20424;-73
2022/08/31 11:35:39;;;;;;;5.60;4.17;;;;;;;;;;5054463;28;20452;-73
2022/08/31 11:38:28;;;;;;;4.30;4.00;;;;;;;;;;5045292;28;20424;-73
2022/08/31 11:40:56;;;;;;;4.50;4.17;;;;;;;;;;5054420;28;20452;-74
2022/08/31 11:43:32;;;;;;;8.77;3.97;;;;;;;;;;5054623;28;20464;-75
2022/08/31 11:46:19;;;;;;;3.63;3.33;;;;;;;;;;5071823;28;20432;-74
2022/08/31 11:48:49;;;;;;;10.80;4.47;;;;;;;;;;5054397;28;20428;-73
2022/08/31 11:51:31;;;;;;;4.00;3.70;;;;;;;;;;5054292;28;20887;-73
2022/08/31 11:54:10;;;;;;;4.60;4.20;;;;;;;;;;5054996;28;20425;-73
2022/08/31 11:56:42;;;;;;;3.73;3.40;;;;;;;;;;5053773;28;20476;-73
2022/08/31 11:59:30;;;;;;;4.33;3.80;;;;;;;;;;5037306;28;20985;-73
2022/08/31 12:02:19;;;;;;;4.17;3.87;;;;;;;;;;5071665;28;20504;-73
2022/08/31 12:04:53;;;;;;;4.20;3.63;;;;;;;;;;5053653;28;20425;-74
2022/08/31 12:07:27;;;;;;;4.73;4.33;;;;;;;;;;5071799;28;20421;-73
2022/08/31 12:10:06;;;;;;;4.13;3.63;;;;;;;;;;5071947;28;20928;-73
2022/08/31 12:12:38;;;;;;;4.73;4.33;;;;;;;;;;5037134;28;20552;-74
2022/08/31 12:15:14;;;;;;;4.87;4.47;;;;;;;;;;5053509;28;20493;-73
2022/08/31 12:17:56;;;;;;;4.03;3.73;;;;;;;;;;5053549;28;20464;-74
2022/08/31 12:23:35;;;;;;;4.63;4.17;;;;;;;;;;5053417;28;20471;-73
2022/08/31 12:26:02;;;;;;;4.63;4.23;;;;;;;;;;5036888;28;20861;-73
2022/08/31 12:28:35;;;;;;;4.37;4.00;;;;;;;;;;5053250;28;20521;-73
2022/08/31 12:31:04;;;;;;;5.50;4.20;;;;;;;;;;5053377;28;20444;-73
2022/08/31 12:33:31;;;;;;;4.40;4.07;;;;;;;;;;5036404;28;20430;-72
2022/08/31 12:36:30;;;;;;;4.67;4.27;;;;;;;;;;5053266;28;20455;-73
2022/08/31 12:39:24;;;;;;;4.47;3.97;;;;;;;;;;5002306;28;20941;-73
2022/08/31 12:41:55;;;;;;;5.83;5.00;;;;;;;;;;5035099;28;20440;-74
2022/08/31 12:44:22;;;;;;;5.83;4.40;;;;;;;;;;5053476;28;20484;-73
2022/08/31 12:47:04;;;;;;;5.07;4.10;;;;;;;;;;5071294;28;20460;-73
2022/08/31 12:49:37;;;;;;;6.00;4.47;;;;;;;;;;5036365;28;20507;-73
2022/08/31 12:52:28;;;;;;;9.00;4.27;;;;;;;;;;5053269;28;20440;-73
2022/08/31 12:55:07;;;;;;;9.53;4.17;;;;;;;;;;5053080;28;20482;-73
2022/08/31 12:57:38;;;;;;;4.20;3.90;;;;;;;;;;5041147;28;20551;-72
2022/08/31 13:00:18;;;;;;;4.57;4.17;;;;;;;;;;5037041;28;20459;-75
2022/08/31 13:02:48;;;;;;;4.40;4.03;;;;;;;;;;5037756;28;20428;-73
2022/08/31 13:05:20;;;;;;;4.20;3.90;;;;;;;;;;5052869;28;21108;-73
2022/08/31 13:07:47;;;;;;;7.27;4.70;;;;;;;;;;5053195;28;20956;-73
2022/08/31 13:10:28;;;;;;;4.20;3.80;;;;;;;;;;5036529;28;20448;-72
2022/08/31 13:12:58;;;;;;;4.70;4.40;;;;;;;;;;5071236;28;20848;-73
2022/08/31 13:15:25;;;;;;;4.50;4.10;;;;;;;;;;5053021;28;20490;-74
2022/08/31 13:17:53;;;;;;;4.73;4.03;;;;;;;;;;5070852;28;20547;-74
2022/08/31 13:20:24;;;;;;;7.13;4.30;;;;;;;;;;5036543;28;20488;-73
2022/08/31 13:22:55;;;;;;;5.60;4.50;;;;;;;;;;5053184;28;20475;-74
2022/08/31 13:25:36;;;;;;;4.60;4.20;;;;;;;;;;5053078;28;20448;-74
2022/08/31 13:28:03;;;;;;;4.70;4.30;;;;;;;;;;5052886;28;20432;-73
2022/08/31 13:30:33;;;;;;;4.83;4.43;;;;;;;;;;5070832;28;20571;-73
2022/08/31 13:33:05;;;;;;;4.33;4.03;;;;;;;;;;5033733;28;20468;-74
2022/08/31 13:35:34;;;;;;;4.60;4.20;;;;;;;;;;5045840;28;20497;-73
2022/08/31 13:38:06;;;;;;;4.43;4.07;;;;;;;;;;5052781;28;20452;-73
2022/08/31 13:40:35;;;;;;;3.90;3.60;;;;;;;;;;5052997;28;20852;-72
2022/08/31 13:43:04;;;;;;;4.37;3.60;;;;;;;;;;5070972;28;20425;-72
2022/08/31 13:45:33;;;;;;;4.13;3.83;;;;;;;;;;5038361;28;20428;-73
2022/08/31 13:48:04;;;;;;;4.27;3.87;;;;;;;;;;5056409;28;20993;-72
2022/08/31 13:50:34;;;;;;;4.17;3.87;;;;;;;;;;5039567;28;20524;-73
2022/08/31 13:53:03;;;;;;;4.43;4.10;;;;;;;;;;5056140;28;20432;-73
2022/08/31 13:55:49;;;;;;;4.63;4.33;;;;;;;;;;5043441;28;20438;-73
2022/08/31 13:58:22;;;;;;;4.13;3.80;;;;;;;;;;5040455;28;20629;-73
2022/08/31 14:00:57;;;;;;;4.43;4.03;;;;;;;;;;5075741;28;20435;-74
2022/08/31 14:03:30;;;;;;;4.37;4.07;;;;;;;;;;5056163;28;20946;-73
2022/08/31 14:06:22;;;;;;;8.20;4.47;;;;;;;;;;5055984;28;20432;-72
2022/08/31 14:08:50;;;;;;;3.53;3.33;;;;;;;;;;5039555;28;20432;-72
2022/08/31 14:11:17;;;;;;;3.57;3.30;;;;;;;;;;5055602;28;20585;-73
2022/08/31 14:13:47;;;;;;;5.10;4.60;;;;;;;;;;5055730;28;20475;-72
2022/08/31 14:16:45;;;;;;;4.25;3.50;;;;;;;;;;5038987;28;20444;-72
2022/08/31 14:19:30;;;;;;;3.43;3.13;;;;;;;;;;5042934;28;20491;-73
2022/08/31 14:22:15;;;;;;;4.23;3.83;;;;;;;;;;5039095;28;20432;-73
2022/08/31 14:24:42;;;;;;;4.40;4.00;;;;;;;;;;5055546;28;20545;-72
2022/08/31 14:27:11;;;;;;;4.97;4.57;;;;;;;;;;5038608;28;20460;-73
2022/08/31 14:29:39;;;;;;;4.40;4.00;;;;;;;;;;5072891;28;20448;-73
2022/08/31 14:32:06;;;;;;;4.30;4.00;;;;;;;;;;5055273;28;20529;-74
2022/08/31 14:34:39;;;;;;;3.97;3.67;;;;;;;;;;5035209;28;20461;-73
2022/08/31 14:37:09;;;;;;;3.83;3.30;;;;;;;;;;5065037;28;20930;-73
2022/08/31 14:39:44;;;;;;;4.80;4.33;;;;;;;;;;5059509;28;20468;-72
2022/08/31 14:42:13;;;;;;;4.40;3.90;;;;;;;;;;5054839;28;20447;-72
2022/08/31 14:44:40;;;;;;;3.60;3.30;;;;;;;;;;5054667;28;20975;-73
2022/08/31 14:47:11;;;;;;;4.13;3.33;;;;;;;;;;5054635;28;20943;-73
2022/08/31 14:49:39;;;;;;;7.23;3.40;;;;;;;;;;5054543;28;20464;-73
2022/08/31 14:52:06;;;;;;;5.43;4.03;;;;;;;;;;5072591;28;20838;-74
2022/08/31 14:54:35;;;;;;;4.27;3.97;;;;;;;;;;5072583;28;20463;-73
2022/08/31 14:57:08;;;;;;;4.20;3.87;;;;;;;;;;5037664;28;20492;-73
2022/08/31 14:59:35;;;;;;;3.90;3.60;;;;;;;;;;5072642;28;20452;-72
2022/08/31 15:02:01;;;;;;;3.87;3.57;;;;;;;;;;5054389;28;20433;-72
2022/08/31 15:04:30;;;;;;;5.67;3.23;;;;;;;;;;5072512;28;20421;-72
2022/08/31 15:07:04;;;;;;;4.13;3.83;;;;;;;;;;5054624;28;20428;-73
2022/08/31 15:09:36;;;;;;;4.60;4.30;;;;;;;;;;5054565;28;20879;-72
2022/08/31 15:12:04;;;;;;;3.90;3.40;;;;;;;;;;5054398;28;20437;-72
2022/08/31 15:14:35;;;;;;;4.20;3.43;;;;;;;;;;5037729;28;20887;-72
2022/08/31 15:17:10;;;;;;;3.67;3.37;;;;;;;;;;5054182;28;20475;-73
2022/08/31 15:19:46;;;;;;;4.30;3.37;;;;;;;;;;5038777;28;20456;-73
2022/08/31 15:22:14;;;;;;;3.83;3.53;;;;;;;;;;5043723;28;20901;-72
2022/08/31 15:24:43;;;;;;;4.13;3.60;;;;;;;;;;5017754;28;20835;-71
2022/08/31 15:27:14;;;;;;;4.00;3.73;;;;;;;;;;5028734;28;20437;-73
2022/08/31 15:29:41;;;;;;;3.40;3.00;;;;;;;;;;5053861;28;20506;-73